createdAt,value
2023-04-17T00:00:45.179Z,11.48
2023-04-17T00:06:49.576Z,11.05
2023-04-17T00:12:54.308Z,9.27
2023-04-17T00:18:57.728Z,10.27
2023-04-17T00:25:01.150Z,9.52
2023-04-17T00:31:06.419Z,11.27
2023-04-17T00:37:09.851Z,11.98
2023-04-17T00:43:13.274Z,12.80
2023-04-17T00:49:18.242Z,9.93
2023-04-17T00:55:22.214Z,10.93
2023-04-17T01:01:25.684Z,9.27
2023-04-17T01:07:31.516Z,8.05
2023-04-17T01:13:34.884Z,8.55
2023-04-17T01:19:39.175Z,9.57
2023-04-17T01:25:44.074Z,8.65
2023-04-17T01:31:47.541Z,10.98
2023-04-17T01:37:51.197Z,10.65
2023-04-17T01:43:57.116Z,14.45
2023-04-17T01:50:00.763Z,12.73
2023-04-17T01:56:04.410Z,13.60
2023-04-17T02:02:09.281Z,16.85
2023-04-17T02:08:12.696Z,19.15
2023-04-17T02:14:16.082Z,21.23
2023-04-17T02:20:20.840Z,20.55
2023-04-17T02:26:24.296Z,20.65
2023-04-17T02:32:28.515Z,19.45
2023-04-17T02:38:33.441Z,16.25
2023-04-17T02:44:36.858Z,17.80
2023-04-17T02:50:40.381Z,19.80
2023-04-17T02:56:45.184Z,16.80
2023-04-17T03:02:48.703Z,17.58
2023-04-17T03:08:52.412Z,18.55
2023-04-17T03:14:57.169Z,14.55
2023-04-17T03:21:01.965Z,17.95
2023-04-17T03:27:05.526Z,17.88
2023-04-17T03:33:10.332Z,16.77
2023-04-17T03:39:14.117Z,18.17
2023-04-17T03:45:17.997Z,18.90
2023-04-17T03:51:22.903Z,20.83
2023-04-17T03:57:26.502Z,24.55
2023-04-17T04:03:30.223Z,23.10
2023-04-17T04:09:35.218Z,23.63
2023-04-17T04:15:39.051Z,28.15
2023-04-17T04:21:43.689Z,28.33
2023-04-17T04:27:50.608Z,25.55
2023-04-17T04:33:55.403Z,28.90
2023-04-17T04:40:02.203Z,34.00
2023-04-17T04:46:07.027Z,28.95
2023-04-17T04:52:10.680Z,29.23
2023-04-17T04:58:14.114Z,27.35
2023-04-17T05:04:18.991Z,32.90
2023-04-17T05:10:22.917Z,33.85
2023-04-17T05:16:26.715Z,35.75
2023-04-17T05:22:31.487Z,38.60
2023-04-17T05:28:34.956Z,37.42
2023-04-17T05:34:38.495Z,35.92
2023-04-17T05:40:43.287Z,33.78
2023-04-17T05:46:46.968Z,35.35
2023-04-17T05:52:51.115Z,35.08
2023-04-17T05:58:56.134Z,36.55
2023-04-17T06:05:00.085Z,42.63
2023-04-17T06:11:03.663Z,41.70
2023-04-17T06:17:08.594Z,44.85
2023-04-17T06:23:12.023Z,39.25
2023-04-17T06:29:15.800Z,34.78
2023-04-17T06:35:20.637Z,40.05
2023-04-17T06:41:24.027Z,39.38
2023-04-17T06:47:27.415Z,39.25
2023-04-17T06:53:32.191Z,42.60
2023-04-17T06:59:35.703Z,50.25
2023-04-17T07:05:39.132Z,44.20
2023-04-17T07:11:44.270Z,50.95
2023-04-17T07:17:47.784Z,53.45
2023-04-17T07:23:51.338Z,54.42
2023-04-17T07:29:56.221Z,46.30
2023-04-17T07:35:59.784Z,48.55
2023-04-17T07:42:06.491Z,44.40
2023-04-17T07:48:11.680Z,50.33
2023-04-17T07:54:15.092Z,47.85
2023-04-17T08:00:19.546Z,50.35
2023-04-17T08:06:24.811Z,48.38
2023-04-17T08:12:28.222Z,50.58
2023-04-17T08:18:32.357Z,47.97
2023-04-17T08:24:37.243Z,43.25
2023-04-17T08:30:40.912Z,43.00
2023-04-17T08:36:44.418Z,48.05
2023-04-17T08:42:49.619Z,48.22
2023-04-17T08:48:53.321Z,53.22
2023-04-17T08:54:56.743Z,46.10
2023-04-17T09:01:08.909Z,51.08
2023-04-17T09:07:13.624Z,45.15
2023-04-17T09:13:18.323Z,46.88
2023-04-17T09:19:23.129Z,48.63
2023-04-17T09:25:28.176Z,41.33
2023-04-17T09:31:32.430Z,49.05
2023-04-17T09:37:53.961Z,50.25
2023-04-17T09:44:01.077Z,44.72
2023-04-17T09:50:05.311Z,40.42
2023-04-17T09:56:13.546Z,43.65
2023-04-17T10:02:17.721Z,39.42
2023-04-17T10:08:21.201Z,38.50
2023-04-17T10:14:27.800Z,43.15
2023-04-17T10:20:35.452Z,37.35
2023-04-17T10:26:41.756Z,43.95
2023-04-17T10:32:47.215Z,44.45
2023-04-17T10:38:50.857Z,44.70
2023-04-17T10:44:58.905Z,38.05
2023-04-17T10:51:04.008Z,42.63
2023-04-17T10:57:11.137Z,40.38
2023-04-17T11:03:17.286Z,39.90
2023-04-17T11:09:23.239Z,45.95
2023-04-17T11:15:29.994Z,48.38
2023-04-17T11:21:33.819Z,53.13
2023-04-17T11:27:38.584Z,38.03
2023-04-17T11:33:42.105Z,47.60
2023-04-17T11:39:45.511Z,47.28
2023-04-17T11:45:52.200Z,43.47
2023-04-17T11:51:56.734Z,36.60
2023-04-17T11:58:00.604Z,33.00
2023-04-17T12:04:23.233Z,38.05
2023-04-17T12:10:26.698Z,32.97
2023-04-17T12:16:30.705Z,35.35
2023-04-17T12:22:35.540Z,33.55
2023-04-17T12:28:39.083Z,27.15
2023-04-17T12:34:42.474Z,30.15
2023-04-17T12:40:47.229Z,26.63
2023-04-17T12:46:50.687Z,28.98
2023-04-17T12:52:54.062Z,30.50
2023-04-17T12:59:00.721Z,32.90
2023-04-17T13:05:07.050Z,30.17
2023-04-17T13:11:11.192Z,29.75
2023-04-17T13:17:17.351Z,32.78
2023-04-17T13:23:21.432Z,28.25
2023-04-17T13:29:24.835Z,28.25
2023-04-17T13:35:29.764Z,27.30
2023-04-17T13:41:33.191Z,28.00
2023-04-17T13:47:36.836Z,29.65
2023-04-17T13:53:41.672Z,31.27
2023-04-17T13:59:45.050Z,30.90
2023-04-17T14:05:48.595Z,24.13
2023-04-17T14:11:53.551Z,22.38
2023-04-17T14:17:57.048Z,22.83
2023-04-17T14:24:00.510Z,27.23
2023-04-17T14:30:05.849Z,25.45
2023-04-17T14:36:09.596Z,19.73
2023-04-17T14:42:13.137Z,22.50
2023-04-17T14:48:18.211Z,20.58
2023-04-17T14:54:21.609Z,33.23
2023-04-17T15:00:25.112Z,34.22
2023-04-17T15:06:29.941Z,31.83
2023-04-17T15:12:33.320Z,33.78
2023-04-17T15:18:36.774Z,33.85
2023-04-17T15:24:41.506Z,34.25
2023-04-17T15:30:44.911Z,34.42
2023-04-17T15:36:48.872Z,31.85
2023-04-17T15:42:53.669Z,36.42
2023-04-17T15:49:08.282Z,31.73
2023-04-17T15:55:12.484Z,34.08
2023-04-17T16:01:17.678Z,32.50
2023-04-17T16:07:21.152Z,39.38
2023-04-17T16:13:24.551Z,35.30
2023-04-17T16:19:29.376Z,37.50
2023-04-17T16:25:35.515Z,36.83
2023-04-17T16:31:39.154Z,34.13
2023-04-17T16:37:43.980Z,38.17
2023-04-17T16:43:47.420Z,35.78
2023-04-17T16:49:50.818Z,38.15
2023-04-17T16:55:56.997Z,32.53
2023-04-17T17:02:02.629Z,32.38
2023-04-17T17:08:06.337Z,31.02
2023-04-17T17:14:11.486Z,29.05
2023-04-17T17:20:15.080Z,30.38
2023-04-17T17:26:18.503Z,34.85
2023-04-17T17:32:23.804Z,33.22
2023-04-17T17:38:28.656Z,32.70
2023-04-17T17:44:32.769Z,30.63
2023-04-17T17:50:37.805Z,31.52
2023-04-17T17:56:41.575Z,33.80
2023-04-17T18:02:45.068Z,38.45
2023-04-17T18:08:49.981Z,36.03
2023-04-17T18:14:53.441Z,35.10
2023-04-17T18:20:56.940Z,36.97
2023-04-17T18:27:02.418Z,39.72
2023-04-17T18:33:05.974Z,32.35
2023-04-17T18:39:09.413Z,38.78
2023-04-17T18:45:16.054Z,33.22
2023-04-17T18:51:20.721Z,34.97
2023-04-17T18:57:24.132Z,33.03
2023-04-17T19:03:28.937Z,33.40
2023-04-17T19:09:32.731Z,34.00
2023-04-17T19:15:36.123Z,35.10
2023-04-17T19:21:40.944Z,36.28
2023-04-17T19:27:44.366Z,33.17
2023-04-17T19:33:47.810Z,32.80
2023-04-17T19:39:56.409Z,37.20
2023-04-17T19:46:00.307Z,35.17
2023-04-17T19:52:03.761Z,34.72
2023-04-17T19:58:08.693Z,34.75
2023-04-17T20:04:12.185Z,29.85
2023-04-17T20:10:16.891Z,35.38
2023-04-17T20:16:21.801Z,36.55
2023-04-17T20:22:25.786Z,35.28
2023-04-17T20:28:29.691Z,39.35
2023-04-17T20:34:35.183Z,35.10
2023-04-17T20:40:39.998Z,38.22
2023-04-17T20:46:43.469Z,38.40
2023-04-17T20:52:47.109Z,37.70
2023-04-17T20:58:51.898Z,43.78
2023-04-17T21:04:55.324Z,38.50
2023-04-17T21:10:58.962Z,42.35
2023-04-17T21:17:03.921Z,40.42
2023-04-17T21:23:07.423Z,44.50
2023-04-17T21:29:10.943Z,40.38
2023-04-17T21:35:15.706Z,36.45
2023-04-17T21:41:19.212Z,34.70
2023-04-17T21:47:22.868Z,38.67
2023-04-17T21:53:27.662Z,37.78
2023-04-17T21:59:31.216Z,41.67
2023-04-17T22:05:34.952Z,41.78
2023-04-17T22:11:40.510Z,41.10
2023-04-17T22:17:44.713Z,38.38
2023-04-17T22:23:48.161Z,43.25
2023-04-17T22:29:53.099Z,43.47
2023-04-17T22:35:56.513Z,42.65
2023-04-17T22:42:00.132Z,47.08
2023-04-17T22:48:05.184Z,42.85
2023-04-17T22:54:15.451Z,45.20
2023-04-17T23:00:24.041Z,41.35
2023-04-17T23:06:28.918Z,45.00
2023-04-17T23:12:33.495Z,44.75
2023-04-17T23:18:37.350Z,43.47
2023-04-17T23:24:42.331Z,47.22
2023-04-17T23:30:45.704Z,45.72
2023-04-17T23:36:49.292Z,45.40
2023-04-17T23:42:54.145Z,44.65
2023-04-17T23:48:57.979Z,44.38
2023-04-17T23:55:01.675Z,40.97
